createdAt,value
2023-05-19T00:00:37.560Z,3.72
2023-05-19T00:03:05.352Z,3.60
2023-05-19T00:05:33.624Z,4.50
2023-05-19T00:08:01.844Z,3.90
2023-05-19T00:10:31.821Z,3.78
2023-05-19T00:12:59.922Z,4.10
2023-05-19T00:15:52.637Z,3.95
2023-05-19T00:18:20.643Z,4.07
2023-05-19T00:20:48.177Z,3.70
2023-05-19T00:23:15.827Z,3.30
2023-05-19T00:25:43.378Z,3.25
2023-05-19T00:28:10.831Z,3.47
2023-05-19T00:30:38.375Z,4.13
2023-05-19T00:33:05.937Z,3.90
2023-05-19T00:35:33.519Z,3.70
2023-05-19T00:38:00.995Z,3.95
2023-05-19T00:40:31.506Z,3.63
2023-05-19T00:42:59.142Z,4.07
2023-05-19T00:45:26.795Z,3.97
2023-05-19T00:47:54.326Z,3.20
2023-05-19T00:50:21.899Z,3.75
2023-05-19T00:52:49.615Z,3.70
2023-05-19T00:55:17.398Z,3.90
2023-05-19T00:57:46.043Z,3.72
2023-05-19T01:00:14.167Z,3.50
2023-05-19T01:02:42.570Z,3.17
2023-05-19T01:05:10.608Z,3.83
2023-05-19T01:07:38.460Z,4.90
2023-05-19T01:10:06.729Z,3.92
2023-05-19T01:12:35.463Z,3.72
2023-05-19T01:15:06.781Z,3.83
2023-05-19T01:17:47.186Z,3.15
2023-05-19T01:20:27.122Z,3.63
2023-05-19T01:23:21.597Z,3.72
2023-05-19T01:26:07.898Z,3.95
2023-05-19T01:28:53.580Z,3.70
2023-05-19T01:31:24.778Z,3.47
2023-05-19T01:33:53.826Z,3.60
2023-05-19T01:36:23.485Z,3.83
2023-05-19T01:38:53.419Z,3.72
2023-05-19T01:41:22.536Z,3.80
2023-05-19T01:43:54.235Z,3.38
2023-05-19T01:46:23.673Z,3.10
2023-05-19T01:48:52.476Z,3.60
2023-05-19T01:51:20.549Z,3.60
2023-05-19T01:53:48.017Z,3.25
2023-05-19T01:56:24.551Z,3.17
2023-05-19T01:59:00.593Z,3.25
2023-05-19T02:01:28.185Z,3.65
2023-05-19T02:04:21.573Z,3.67
2023-05-19T02:07:09.800Z,3.40
2023-05-19T02:09:59.321Z,3.22
2023-05-19T02:12:32.687Z,3.20
2023-05-19T02:15:12.005Z,3.25
2023-05-19T02:17:43.166Z,3.65
2023-05-19T02:20:11.864Z,3.42
2023-05-19T02:22:39.913Z,4.00
2023-05-19T02:25:08.689Z,3.50
2023-05-19T02:27:38.713Z,3.65
2023-05-19T02:30:08.207Z,4.43
2023-05-19T02:32:37.705Z,3.78
2023-05-19T02:35:05.863Z,3.58
2023-05-19T02:37:33.415Z,3.80
2023-05-19T02:40:00.824Z,3.80
2023-05-19T02:42:28.327Z,3.80
2023-05-19T02:44:56.054Z,4.05
2023-05-19T02:47:23.641Z,3.70
2023-05-19T02:49:51.156Z,3.63
2023-05-19T02:52:18.667Z,4.00
2023-05-19T02:54:46.462Z,4.30
2023-05-19T02:57:14.005Z,4.20
2023-05-19T02:59:42.880Z,4.15
2023-05-19T03:02:10.460Z,4.07
2023-05-19T03:04:41.788Z,4.50
2023-05-19T03:07:10.429Z,4.77
2023-05-19T03:09:38.194Z,4.13
2023-05-19T03:12:07.678Z,5.13
2023-05-19T03:14:37.762Z,4.45
2023-05-19T03:17:07.858Z,4.70
2023-05-19T03:19:35.838Z,4.88
2023-05-19T03:22:03.857Z,4.80
2023-05-19T03:24:31.883Z,5.20
2023-05-19T03:26:59.462Z,5.28
2023-05-19T03:29:26.992Z,4.82
2023-05-19T03:31:54.864Z,5.45
2023-05-19T03:34:22.594Z,5.32
2023-05-19T03:36:50.922Z,5.35
2023-05-19T03:39:18.413Z,4.68
2023-05-19T03:41:48.648Z,4.93
2023-05-19T03:44:16.292Z,4.53
2023-05-19T03:46:44.397Z,4.70
2023-05-19T03:49:11.937Z,4.63
2023-05-19T03:51:59.586Z,4.60
2023-05-19T03:54:33.948Z,4.85
2023-05-19T03:57:02.211Z,5.35
2023-05-19T03:59:31.461Z,4.82
2023-05-19T04:01:59.016Z,5.05
2023-05-19T04:04:28.467Z,5.10
2023-05-19T04:06:56.501Z,5.57
2023-05-19T04:09:27.059Z,4.85
2023-05-19T04:11:55.846Z,5.05
2023-05-19T04:14:24.981Z,4.65
2023-05-19T04:16:53.706Z,5.35
2023-05-19T04:19:21.237Z,5.70
2023-05-19T04:21:48.705Z,5.13
2023-05-19T04:24:16.252Z,6.88
2023-05-19T04:26:46.222Z,6.40
2023-05-19T04:29:18.321Z,5.40
2023-05-19T04:31:46.244Z,4.65
2023-05-19T04:34:13.921Z,5.18
2023-05-19T04:36:41.617Z,5.47
2023-05-19T04:39:12.325Z,5.13
2023-05-19T04:41:44.715Z,5.72
2023-05-19T04:44:13.613Z,5.13
2023-05-19T04:46:42.712Z,5.03
2023-05-19T04:49:12.490Z,5.30
2023-05-19T04:51:41.596Z,5.00
2023-05-19T04:54:10.285Z,5.57
2023-05-19T04:56:37.992Z,5.60
2023-05-19T04:59:06.940Z,5.57
2023-05-19T05:01:34.751Z,5.28
2023-05-19T05:04:03.032Z,5.57
2023-05-19T05:06:31.776Z,5.22
2023-05-19T05:09:04.343Z,5.97
2023-05-19T05:11:32.787Z,5.03
2023-05-19T05:14:01.617Z,5.07
2023-05-19T05:16:30.744Z,5.97
2023-05-19T05:19:00.094Z,5.10
2023-05-19T05:21:29.324Z,5.07
2023-05-19T05:23:57.059Z,4.90
2023-05-19T05:26:30.695Z,4.90
2023-05-19T05:28:58.212Z,5.35
2023-05-19T05:31:25.972Z,4.35
2023-05-19T05:33:53.869Z,4.60
2023-05-19T05:36:24.855Z,4.90
2023-05-19T05:38:52.400Z,5.18
2023-05-19T05:41:19.982Z,4.60
2023-05-19T05:43:49.136Z,4.93
2023-05-19T05:46:17.543Z,5.22
2023-05-19T05:48:45.529Z,4.88
2023-05-19T05:51:13.264Z,5.53
2023-05-19T05:53:49.631Z,4.82
2023-05-19T05:56:18.522Z,4.95
2023-05-19T05:58:50.841Z,5.35
2023-05-19T06:01:18.356Z,5.57
2023-05-19T06:03:46.022Z,5.00
2023-05-19T06:06:18.494Z,4.47
2023-05-19T06:08:46.079Z,5.07
2023-05-19T06:11:13.565Z,11.05
2023-05-19T06:13:42.064Z,5.32
2023-05-19T06:16:14.257Z,4.55
2023-05-19T06:18:45.808Z,5.97
2023-05-19T06:21:13.777Z,5.22
2023-05-19T06:23:42.636Z,4.75
2023-05-19T06:26:11.866Z,5.13
2023-05-19T06:28:39.418Z,4.70
2023-05-19T06:31:06.965Z,4.78
2023-05-19T06:33:48.109Z,4.45
2023-05-19T06:36:16.805Z,4.80
2023-05-19T06:38:45.803Z,4.65
2023-05-19T06:41:13.382Z,5.72
2023-05-19T06:43:42.761Z,4.97
2023-05-19T06:46:14.632Z,5.40
2023-05-19T06:48:44.311Z,5.20
2023-05-19T06:51:12.383Z,4.35
2023-05-19T06:53:41.257Z,4.20
2023-05-19T06:56:10.151Z,3.65
2023-05-19T06:58:39.511Z,4.45
2023-05-19T07:01:07.198Z,3.80
2023-05-19T07:03:41.058Z,4.32
2023-05-19T07:06:10.105Z,3.72
2023-05-19T07:08:38.243Z,4.03
2023-05-19T07:11:07.567Z,3.92
2023-05-19T07:13:35.256Z,4.15
2023-05-19T07:16:02.790Z,4.25
2023-05-19T07:18:31.976Z,3.95
2023-05-19T07:20:59.936Z,4.38
2023-05-19T07:23:27.650Z,4.00
2023-05-19T07:25:58.140Z,4.70
2023-05-19T07:28:25.681Z,4.00
2023-05-19T07:30:53.321Z,3.75
2023-05-19T07:33:20.893Z,4.13
2023-05-19T07:35:48.700Z,4.18
2023-05-19T07:38:16.244Z,4.40
2023-05-19T07:40:43.770Z,4.15
2023-05-19T07:43:11.561Z,4.03
2023-05-19T07:45:39.283Z,4.30
2023-05-19T07:48:07.915Z,4.43
2023-05-19T07:50:35.874Z,4.07
2023-05-19T07:53:03.276Z,4.35
2023-05-19T07:55:30.932Z,4.53
2023-05-19T07:57:58.391Z,4.22
2023-05-19T08:00:26.248Z,4.32
2023-05-19T08:02:53.733Z,4.38
2023-05-19T08:05:21.516Z,4.35
2023-05-19T08:07:49.189Z,4.60
2023-05-19T08:10:16.792Z,4.13
2023-05-19T08:12:44.419Z,3.72
2023-05-19T08:15:12.048Z,4.13
2023-05-19T08:17:39.640Z,4.05
2023-05-19T08:20:09.071Z,3.60
2023-05-19T08:22:37.020Z,3.90
2023-05-19T08:25:05.640Z,4.15
2023-05-19T08:27:33.463Z,3.70
2023-05-19T08:30:01.139Z,4.35
2023-05-19T08:32:28.612Z,4.05
2023-05-19T08:34:56.137Z,4.22
2023-05-19T08:37:23.687Z,4.07
2023-05-19T08:39:51.103Z,4.20
2023-05-19T08:42:18.593Z,3.95
2023-05-19T08:44:46.420Z,3.60
2023-05-19T08:47:15.345Z,3.53
2023-05-19T08:49:51.108Z,2.78
2023-05-19T08:52:52.520Z,3.97
2023-05-19T08:55:59.220Z,3.45
2023-05-19T08:58:28.812Z,3.45
2023-05-19T09:00:57.871Z,4.10
2023-05-19T09:03:26.674Z,2.47
2023-05-19T09:05:54.393Z,3.95
2023-05-19T09:08:22.726Z,2.90
2023-05-19T09:10:50.562Z,3.00
2023-05-19T09:13:18.206Z,3.83
2023-05-19T09:15:46.180Z,3.30
2023-05-19T09:18:15.136Z,3.40
2023-05-19T09:20:44.247Z,3.33
2023-05-19T09:23:16.396Z,3.95
2023-05-19T09:25:51.643Z,3.75
2023-05-19T09:28:26.157Z,3.20
2023-05-19T09:31:06.750Z,3.83
2023-05-19T09:33:36.393Z,4.00
2023-05-19T09:36:06.216Z,3.63
2023-05-19T09:38:34.780Z,4.28
2023-05-19T09:41:02.611Z,3.45
2023-05-19T09:43:31.801Z,3.85
2023-05-19T09:46:08.756Z,3.72
2023-05-19T09:48:36.988Z,4.35
2023-05-19T09:51:07.594Z,4.28
2023-05-19T09:53:35.396Z,4.05
2023-05-19T09:56:04.151Z,3.83
2023-05-19T09:58:35.461Z,4.20
2023-05-19T10:01:04.775Z,3.57
2023-05-19T10:03:33.571Z,4.35
2023-05-19T10:06:09.388Z,3.90
2023-05-19T10:08:37.778Z,4.18
2023-05-19T10:11:06.204Z,3.95
2023-05-19T10:13:35.953Z,4.20
2023-05-19T10:16:03.871Z,4.40
2023-05-19T10:18:33.511Z,4.03
2023-05-19T10:21:02.478Z,4.10
2023-05-19T10:23:30.013Z,3.45
2023-05-19T10:26:00.819Z,3.95
2023-05-19T10:28:36.943Z,3.95
2023-05-19T10:31:08.922Z,3.92
2023-05-19T10:34:05.277Z,5.45
2023-05-19T10:36:42.417Z,3.67
2023-05-19T10:39:35.716Z,3.60
2023-05-19T10:42:17.032Z,3.45
2023-05-19T10:44:44.543Z,4.13
2023-05-19T10:47:12.403Z,4.57
2023-05-19T10:49:40.441Z,4.50
2023-05-19T10:52:26.156Z,4.22
2023-05-19T10:54:54.905Z,4.70
2023-05-19T10:57:28.126Z,4.65
2023-05-19T10:59:57.522Z,4.43
2023-05-19T11:02:42.345Z,4.70
2023-05-19T11:05:14.456Z,4.65
2023-05-19T11:07:44.599Z,4.13
2023-05-19T11:10:12.518Z,4.10
2023-05-19T11:12:43.025Z,4.20
2023-05-19T11:15:13.487Z,4.70
2023-05-19T11:17:42.586Z,4.20
2023-05-19T11:20:28.187Z,4.72
2023-05-19T11:23:08.908Z,4.50
2023-05-19T11:25:47.079Z,4.00
2023-05-19T11:28:20.119Z,4.40
2023-05-19T11:30:52.359Z,4.63
2023-05-19T11:33:21.618Z,4.97
2023-05-19T11:35:51.220Z,4.40
2023-05-19T11:38:19.591Z,5.55
2023-05-19T11:40:49.697Z,5.15
2023-05-19T11:43:17.305Z,5.63
2023-05-19T11:45:45.769Z,4.40
2023-05-19T11:48:14.011Z,5.40
2023-05-19T11:50:42.307Z,4.93
2023-05-19T11:53:13.417Z,4.43
2023-05-19T11:55:47.938Z,4.20
2023-05-19T12:06:58.186Z,3.63
2023-05-19T12:09:28.167Z,3.67
2023-05-19T12:11:55.846Z,3.70
2023-05-19T12:14:23.619Z,3.80
2023-05-19T12:16:51.110Z,3.22
2023-05-19T12:19:18.706Z,3.80
2023-05-19T12:21:46.330Z,3.30
2023-05-19T12:24:13.907Z,3.75
2023-05-19T12:26:41.378Z,3.50
2023-05-19T12:29:08.901Z,3.75
2023-05-19T12:31:36.596Z,4.40
2023-05-19T12:34:04.540Z,3.60
2023-05-19T12:36:32.796Z,3.58
2023-05-19T12:39:00.809Z,4.00
2023-05-19T12:41:29.551Z,3.60
2023-05-19T12:43:56.946Z,4.00
2023-05-19T12:46:24.635Z,3.83
2023-05-19T12:48:52.285Z,3.30
2023-05-19T12:51:20.469Z,3.70
2023-05-19T12:53:50.490Z,3.47
2023-05-19T12:56:17.992Z,4.35
2023-05-19T12:58:46.076Z,3.85
2023-05-19T13:01:18.665Z,4.13
2023-05-19T13:03:46.385Z,4.65
2023-05-19T13:06:14.129Z,4.32
2023-05-19T13:08:41.883Z,4.45
2023-05-19T13:11:09.282Z,4.35
2023-05-19T13:13:37.460Z,3.95
2023-05-19T13:16:05.228Z,4.40
2023-05-19T13:18:32.758Z,5.05
2023-05-19T13:21:00.228Z,5.13
2023-05-19T13:23:27.993Z,4.35
2023-05-19T13:25:55.490Z,4.70
2023-05-19T13:28:23.431Z,5.32
2023-05-19T13:30:52.136Z,5.15
2023-05-19T13:33:19.823Z,5.75
2023-05-19T13:35:47.303Z,5.30
2023-05-19T13:38:14.713Z,4.72
2023-05-19T13:40:42.175Z,5.00
2023-05-19T13:43:09.892Z,4.80
2023-05-19T13:45:38.052Z,4.53
2023-05-19T13:48:07.460Z,5.05
2023-05-19T13:50:35.328Z,4.45
2023-05-19T13:53:03.734Z,5.05
2023-05-19T13:55:31.693Z,5.82
2023-05-19T13:57:59.188Z,4.70
2023-05-19T14:00:26.605Z,5.70
2023-05-19T14:02:54.127Z,5.78
2023-05-19T14:05:21.732Z,5.65
2023-05-19T14:07:49.289Z,6.22
2023-05-19T14:10:16.747Z,7.15
2023-05-19T14:13:04.905Z,6.65
2023-05-19T14:15:34.596Z,5.40
2023-05-19T14:18:03.124Z,4.50
2023-05-19T14:20:32.170Z,3.65
2023-05-19T14:22:59.825Z,3.92
2023-05-19T14:25:27.286Z,3.40
2023-05-19T14:27:54.708Z,3.72
2023-05-19T14:30:22.289Z,3.60
2023-05-19T14:32:49.750Z,3.40
2023-05-19T14:35:17.247Z,3.47
2023-05-19T14:37:44.752Z,2.90
2023-05-19T14:40:12.683Z,3.22
2023-05-19T14:42:40.105Z,3.33
2023-05-19T14:45:08.131Z,3.20
2023-05-19T14:47:35.593Z,3.58
2023-05-19T14:50:03.147Z,3.60
2023-05-19T14:52:30.753Z,4.10
2023-05-19T14:54:58.191Z,3.90
2023-05-19T14:57:25.696Z,3.65
2023-05-19T14:59:53.196Z,3.50
2023-05-19T15:02:20.686Z,4.68
2023-05-19T15:04:48.285Z,3.92
2023-05-19T15:07:16.431Z,4.63
2023-05-19T15:09:43.859Z,3.85
2023-05-19T15:12:11.278Z,3.80
2023-05-19T15:14:38.802Z,3.30
2023-05-19T15:17:06.315Z,3.35
2023-05-19T15:19:33.997Z,4.20
2023-05-19T15:22:01.589Z,4.72
2023-05-19T15:24:29.056Z,4.18
2023-05-19T15:26:56.534Z,4.60
2023-05-19T15:29:24.029Z,4.63
2023-05-19T15:31:52.136Z,4.60
2023-05-19T15:34:20.662Z,3.97
2023-05-19T15:36:48.198Z,4.38
2023-05-19T15:39:15.796Z,5.15
2023-05-19T15:41:43.324Z,5.90
2023-05-19T15:44:11.027Z,4.45
2023-05-19T15:46:38.598Z,4.45
2023-05-19T15:49:06.135Z,4.32
2023-05-19T15:51:33.639Z,4.60
2023-05-19T15:54:01.111Z,6.22
2023-05-19T15:56:28.684Z,7.25
2023-05-19T15:58:56.234Z,6.40
2023-05-19T16:01:23.852Z,5.13
2023-05-19T16:03:51.585Z,4.90
2023-05-19T16:06:19.164Z,5.70
2023-05-19T16:08:46.616Z,4.13
2023-05-19T16:11:14.590Z,3.45
2023-05-19T16:13:42.025Z,3.42
2023-05-19T16:16:09.586Z,3.10
2023-05-19T16:18:37.125Z,3.80
2023-05-19T16:21:04.848Z,3.50
2023-05-19T16:23:32.320Z,3.58
2023-05-19T16:25:59.926Z,3.33
2023-05-19T16:28:28.052Z,4.43
2023-05-19T16:31:00.221Z,3.70
2023-05-19T16:33:28.292Z,3.40
2023-05-19T16:35:57.618Z,4.00
2023-05-19T16:38:26.712Z,4.28
2023-05-19T16:40:54.166Z,4.55
2023-05-19T16:43:21.639Z,4.47
2023-05-19T16:45:49.213Z,5.28
2023-05-19T16:48:16.852Z,5.18
2023-05-19T16:50:44.344Z,5.97
2023-05-19T16:53:11.739Z,5.40
2023-05-19T16:55:39.177Z,5.10
2023-05-19T16:58:06.565Z,4.90
2023-05-19T17:00:34.264Z,4.80
2023-05-19T17:03:01.983Z,5.53
2023-05-19T17:05:29.505Z,4.82
2023-05-19T17:07:56.954Z,5.80
2023-05-19T17:10:24.345Z,5.47
2023-05-19T17:12:51.873Z,4.78
2023-05-19T17:15:19.313Z,6.07
2023-05-19T17:17:46.757Z,5.40
2023-05-19T17:20:14.353Z,5.40
2023-05-19T17:22:42.091Z,5.88
2023-05-19T17:25:10.133Z,4.05
2023-05-19T17:27:37.638Z,5.15
2023-05-19T17:30:05.601Z,4.38
2023-05-19T17:32:38.405Z,4.85
2023-05-19T17:35:06.884Z,4.78
2023-05-19T17:37:34.394Z,5.55
2023-05-19T17:40:01.912Z,5.75
2023-05-19T17:42:29.360Z,5.57
2023-05-19T17:44:56.811Z,4.78
2023-05-19T17:47:24.470Z,6.20
2023-05-19T17:49:53.120Z,5.40
2023-05-19T17:52:21.622Z,5.05
2023-05-19T17:54:50.513Z,4.22
2023-05-19T17:57:18.600Z,5.28
2023-05-19T17:59:46.560Z,6.47
2023-05-19T18:02:15.716Z,5.03
2023-05-19T18:04:43.796Z,4.57
2023-05-19T18:07:12.029Z,6.28
2023-05-19T18:09:43.640Z,4.60
2023-05-19T18:12:11.114Z,5.72
2023-05-19T18:14:38.796Z,5.35
2023-05-19T18:17:06.475Z,5.78
2023-05-19T18:19:33.893Z,6.05
2023-05-19T18:22:01.327Z,5.35
2023-05-19T18:24:28.800Z,5.43
2023-05-19T18:26:56.228Z,5.70
2023-05-19T18:29:23.675Z,5.50
2023-05-19T18:31:51.175Z,4.57
2023-05-19T18:34:18.729Z,4.70
2023-05-19T18:36:46.165Z,4.70
2023-05-19T18:39:13.590Z,5.40
2023-05-19T18:41:42.724Z,5.28
2023-05-19T18:44:11.164Z,5.88
2023-05-19T18:46:38.642Z,5.43
2023-05-19T18:49:06.194Z,6.15
2023-05-19T18:51:35.911Z,5.65
2023-05-19T18:54:03.431Z,5.35
2023-05-19T18:56:33.302Z,5.80
2023-05-19T18:59:00.745Z,6.35
2023-05-19T19:01:28.415Z,6.07
2023-05-19T19:03:56.325Z,7.00
2023-05-19T19:06:23.999Z,7.40
2023-05-19T19:08:51.711Z,7.30
2023-05-19T19:11:19.396Z,8.13
2023-05-19T19:13:51.869Z,8.07
2023-05-19T19:16:20.132Z,7.40
2023-05-19T19:18:48.114Z,6.82
2023-05-19T19:21:16.379Z,6.38
2023-05-19T19:23:44.092Z,6.60
2023-05-19T19:26:11.844Z,7.10
2023-05-19T19:28:39.331Z,6.40
2023-05-19T19:31:07.987Z,7.22
2023-05-19T19:33:35.821Z,6.90
2023-05-19T19:36:03.424Z,7.32
2023-05-19T19:38:31.087Z,6.78
2023-05-19T19:40:58.615Z,7.15
2023-05-19T19:43:26.083Z,7.93
2023-05-19T19:46:01.221Z,7.70
2023-05-19T19:48:29.158Z,7.95
2023-05-19T19:50:57.503Z,7.95
2023-05-19T19:53:25.386Z,7.25
2023-05-19T19:56:11.507Z,7.93
2023-05-19T19:58:39.086Z,6.95
2023-05-19T20:01:08.939Z,7.60
2023-05-19T20:03:37.485Z,7.68
2023-05-19T20:06:05.034Z,7.10
2023-05-19T20:08:33.418Z,7.47
2023-05-19T20:11:01.385Z,7.38
2023-05-19T20:13:30.718Z,7.15
2023-05-19T20:15:59.664Z,7.35
2023-05-19T20:18:29.976Z,7.18
2023-05-19T20:20:57.690Z,7.90
2023-05-19T20:23:26.030Z,7.93
2023-05-19T20:26:10.084Z,8.07
2023-05-19T20:28:39.955Z,7.57
2023-05-19T20:31:07.898Z,7.72
2023-05-19T20:33:35.826Z,7.47
2023-05-19T20:36:04.896Z,7.43
2023-05-19T20:38:32.404Z,7.20
2023-05-19T20:40:59.897Z,7.47
2023-05-19T20:43:27.524Z,7.20
2023-05-19T20:45:55.120Z,7.65
2023-05-19T20:48:22.593Z,7.88
2023-05-19T20:50:50.640Z,6.80
2023-05-19T20:53:19.510Z,6.45
2023-05-19T20:55:47.189Z,5.38
2023-05-19T20:58:14.701Z,5.72
2023-05-19T21:00:42.186Z,5.60
2023-05-19T21:03:09.858Z,6.10
2023-05-19T21:05:37.379Z,5.75
2023-05-19T21:08:05.067Z,5.53
2023-05-19T21:10:32.534Z,5.60
2023-05-19T21:13:00.228Z,5.30
2023-05-19T21:15:27.622Z,5.75
2023-05-19T21:17:55.391Z,5.25
2023-05-19T21:20:22.932Z,5.25
2023-05-19T21:22:50.390Z,4.88
2023-05-19T21:25:17.883Z,4.63
2023-05-19T21:27:46.265Z,4.93
2023-05-19T21:30:14.466Z,5.28
2023-05-19T21:32:41.969Z,5.20
2023-05-19T21:35:09.603Z,5.13
2023-05-19T21:37:36.987Z,4.97
2023-05-19T21:40:04.621Z,5.43
2023-05-19T21:42:32.043Z,6.28
2023-05-19T21:45:01.996Z,5.07
2023-05-19T21:47:29.440Z,4.88
2023-05-19T21:49:56.875Z,5.80
2023-05-19T21:52:24.395Z,5.95
2023-05-19T21:54:52.040Z,5.38
2023-05-19T21:57:19.476Z,5.63
2023-05-19T21:59:47.040Z,5.63
2023-05-19T22:02:14.587Z,6.10
2023-05-19T22:04:42.952Z,5.70
2023-05-19T22:07:10.485Z,5.20
2023-05-19T22:09:38.058Z,5.65
2023-05-19T22:12:05.990Z,5.55
2023-05-19T22:14:33.397Z,5.45
2023-05-19T22:17:00.878Z,5.53
2023-05-19T22:19:28.379Z,5.28
2023-05-19T22:22:01.819Z,6.50
2023-05-19T22:24:33.339Z,5.93
2023-05-19T22:27:00.899Z,6.25
2023-05-19T22:29:28.318Z,6.18
2023-05-19T22:31:55.803Z,6.32
2023-05-19T22:34:23.424Z,6.00
2023-05-19T22:36:50.893Z,6.78
2023-05-19T22:39:18.391Z,6.07
2023-05-19T22:41:45.964Z,6.82
2023-05-19T22:44:16.256Z,7.47
2023-05-19T22:46:44.729Z,6.80
2023-05-19T22:49:12.170Z,7.03
2023-05-19T22:51:39.766Z,7.78
2023-05-19T22:54:07.740Z,7.82
2023-05-19T22:56:35.143Z,7.68
2023-05-19T22:59:02.522Z,7.78
2023-05-19T23:01:30.001Z,6.95
2023-05-19T23:03:57.574Z,7.95
2023-05-19T23:06:25.182Z,6.72
2023-05-19T23:09:00.321Z,6.63
2023-05-19T23:11:27.742Z,6.32
2023-05-19T23:13:55.233Z,6.65
2023-05-19T23:16:22.782Z,6.20
2023-05-19T23:18:50.346Z,6.13
2023-05-19T23:21:17.893Z,5.55
2023-05-19T23:23:45.400Z,7.18
2023-05-19T23:26:15.867Z,6.65
2023-05-19T23:28:43.843Z,5.97
2023-05-19T23:31:11.285Z,5.80
2023-05-19T23:33:38.932Z,5.78
2023-05-19T23:36:08.476Z,5.82
2023-05-19T23:38:36.472Z,6.22
2023-05-19T23:41:04.917Z,5.82
2023-05-19T23:43:32.553Z,6.28
2023-05-19T23:46:00.548Z,5.80
2023-05-19T23:48:31.460Z,6.15
2023-05-19T23:50:58.930Z,5.45
2023-05-19T23:53:26.558Z,5.18
2023-05-19T23:55:54.502Z,5.55
2023-05-19T23:58:23.487Z,5.60
